sensor_id;sensor_type;location;lat;lon;timestamp;pressure;altitude;pressure_sealevel;temperature;humidity
19457;BME280;9867;48.094;11.478;2023-06-22T00:00:54;95291.28;;;21.78;100.00
19457;BME280;9867;48.094;11.478;2023-06-22T00:03:23;95286.59;;;21.80;100.00
19457;BME280;9867;48.094;11.478;2023-06-22T00:05:51;95281.88;;;21.82;100.00
19457;BME280;9867;48.094;11.478;2023-06-22T00:08:19;95280.31;;;21.81;100.00
19457;BME280;9867;48.094;11.478;2023-06-22T00:10:49;95290.00;;;21.70;100.00
19457;BME280;9867;48.094;11.478;2023-06-22T00:13:17;95280.56;;;21.79;100.00
19457;BME280;9867;48.094;11.478;2023-06-22T00:15:45;95278.50;;;21.82;100.00
19457;BME280;9867;48.094;11.478;2023-06-22T00:18:13;95284.25;;;21.68;100.00
19457;BME280;9867;48.094;11.478;2023-06-22T00:20:42;95279.03;;;21.68;100.00
19457;BME280;9867;48.094;11.478;2023-06-22T00:23:12;95280.31;;;21.76;100.00
19457;BME280;9867;48.094;11.478;2023-06-22T00:25:43;95273.56;;;21.70;100.00
19457;BME280;9867;48.094;11.478;2023-06-22T00:28:13;95280.06;;;21.77;100.00
19457;BME280;9867;48.094;11.478;2023-06-22T00:30:41;95280.59;;;21.69;100.00
19457;BME280;9867;48.094;11.478;2023-06-22T00:33:09;95284.25;;;21.68;100.00
19457;BME280;9867;48.094;11.478;2023-06-22T00:35:39;95287.41;;;21.70;100.00
19457;BME280;9867;48.094;11.478;2023-06-22T00:38:08;95280.09;;;21.67;100.00
19457;BME280;9867;48.094;11.478;2023-06-22T00:40:36;95281.38;;;21.55;100.00
19457;BME280;9867;48.094;11.478;2023-06-22T00:43:05;95276.94;;;21.60;100.00
19457;BME280;9867;48.094;11.478;2023-06-22T00:45:36;95263.09;;;21.65;100.00
19457;BME280;9867;48.094;11.478;2023-06-22T00:48:05;95271.19;;;21.58;100.00
19457;BME280;9867;48.094;11.478;2023-06-22T00:50:34;95268.06;;;21.61;100.00
19457;BME280;9867;48.094;11.478;2023-06-22T00:53:04;95275.88;;;21.51;100.00
19457;BME280;9867;48.094;11.478;2023-06-22T00:55:36;95270.16;;;21.49;100.00
19457;BME280;9867;48.094;11.478;2023-06-22T00:58:06;95262.31;;;21.54;100.00
19457;BME280;9867;48.094;11.478;2023-06-22T01:00:39;95264.16;;;21.49;100.00
19457;BME280;9867;48.094;11.478;2023-06-22T01:03:08;95255.28;;;21.44;100.00
19457;BME280;9867;48.094;11.478;2023-06-22T01:05:37;95245.34;;;21.36;100.00
19457;BME280;9867;48.094;11.478;2023-06-22T01:08:16;95239.34;;;21.21;100.00
19457;BME280;9867;48.094;11.478;2023-06-22T01:10:51;95237.47;;;21.16;100.00
19457;BME280;9867;48.094;11.478;2023-06-22T01:13:27;95242.22;;;21.29;100.00
19457;BME280;9867;48.094;11.478;2023-06-22T01:16:02;95237.72;;;21.09;100.00
19457;BME280;9867;48.094;11.478;2023-06-22T01:18:35;95242.97;;;21.15;100.00
19457;BME280;9867;48.094;11.478;2023-06-22T01:21:06;95238.78;;;21.14;100.00
19457;BME280;9867;48.094;11.478;2023-06-22T01:23:46;95233.03;;;21.11;100.00
19457;BME280;9867;48.094;11.478;2023-06-22T01:26:22;95231.19;;;21.07;100.00
19457;BME280;9867;48.094;11.478;2023-06-22T01:28:57;95228.06;;;20.95;100.00
19457;BME280;9867;48.094;11.478;2023-06-22T01:31:28;95221.56;;;20.97;100.00
19457;BME280;9867;48.094;11.478;2023-06-22T01:33:59;95224.66;;;20.89;100.00
19457;BME280;9867;48.094;11.478;2023-06-22T01:36:29;95217.63;;;20.95;100.00
19457;BME280;9867;48.094;11.478;2023-06-22T01:38:59;95225.97;;;20.92;100.00
19457;BME280;9867;48.094;11.478;2023-06-22T01:41:29;95220.50;;;20.88;100.00
19457;BME280;9867;48.094;11.478;2023-06-22T01:43:59;95227.53;;;20.77;100.00
19457;BME280;9867;48.094;11.478;2023-06-22T01:46:29;95222.56;;;20.76;100.00
19457;BME280;9867;48.094;11.478;2023-06-22T01:48:57;95219.13;;;20.65;100.00
19457;BME280;9867;48.094;11.478;2023-06-22T01:51:25;95217.34;;;20.86;100.00
19457;BME280;9867;48.094;11.478;2023-06-22T01:53:53;95230.16;;;20.93;100.00
19457;BME280;9867;48.094;11.478;2023-06-22T01:56:21;95227.53;;;20.93;100.00
19457;BME280;9867;48.094;11.478;2023-06-22T01:58:54;95223.09;;;20.88;100.00
19457;BME280;9867;48.094;11.478;2023-06-22T02:01:37;95223.63;;;20.90;100.00
19457;BME280;9867;48.094;11.478;2023-06-22T02:04:12;95238.47;;;20.80;100.00
19457;BME280;9867;48.094;11.478;2023-06-22T02:06:43;95230.66;;;20.90;100.00
19457;BME280;9867;48.094;11.478;2023-06-22T02:09:16;95233.28;;;21.10;100.00
19457;BME280;9867;48.094;11.478;2023-06-22T02:11:45;95225.47;;;21.05;100.00
19457;BME280;9867;48.094;11.478;2023-06-22T02:14:14;95224.16;;;21.02;100.00
19457;BME280;9867;48.094;11.478;2023-06-22T02:16:47;95228.56;;;20.87;100.00
19457;BME280;9867;48.094;11.478;2023-06-22T02:19:15;95231.19;;;20.87;100.00
19457;BME280;9867;48.094;11.478;2023-06-22T02:21:45;95230.38;;;20.71;100.00
19457;BME280;9867;48.094;11.478;2023-06-22T02:24:13;95230.03;;;20.42;100.00
19457;BME280;9867;48.094;11.478;2023-06-22T02:26:42;95223.41;;;20.24;100.00
19457;BME280;9867;48.094;11.478;2023-06-22T02:29:12;95229.06;;;20.11;100.00
19457;BME280;9867;48.094;11.478;2023-06-22T02:31:42;95237.81;;;19.90;100.00
19457;BME280;9867;48.094;11.478;2023-06-22T02:34:13;95247.69;;;19.88;100.00
19457;BME280;9867;48.094;11.478;2023-06-22T02:36:45;95243.00;;;19.85;100.00
19457;BME280;9867;48.094;11.478;2023-06-22T02:39:19;95248.47;;;19.88;100.00
19457;BME280;9867;48.094;11.478;2023-06-22T02:41:49;95246.34;;;19.75;100.00
19457;BME280;9867;48.094;11.478;2023-06-22T02:44:17;95252.47;;;19.59;100.00
19457;BME280;9867;48.094;11.478;2023-06-22T02:46:48;95256.84;;;19.53;100.00
19457;BME280;9867;48.094;11.478;2023-06-22T02:49:18;95264.00;;;19.41;100.00
19457;BME280;9867;48.094;11.478;2023-06-22T02:51:47;95267.19;;;19.48;100.00
19457;BME280;9867;48.094;11.478;2023-06-22T02:54:18;95258.94;;;19.24;100.00
19457;BME280;9867;48.094;11.478;2023-06-22T02:56:49;95248.41;;;19.14;100.00
19457;BME280;9867;48.094;11.478;2023-06-22T02:59:17;95251.63;;;19.21;100.00
19457;BME280;9867;48.094;11.478;2023-06-22T03:01:52;95244.69;;;19.64;100.00
19457;BME280;9867;48.094;11.478;2023-06-22T03:04:26;95240.41;;;19.90;100.00
19457;BME280;9867;48.094;11.478;2023-06-22T03:06:54;95241.16;;;19.85;100.00
19457;BME280;9867;48.094;11.478;2023-06-22T03:09:22;95237.91;;;20.10;100.00
19457;BME280;9867;48.094;11.478;2023-06-22T03:11:50;95248.69;;;20.24;100.00
19457;BME280;9867;48.094;11.478;2023-06-22T03:14:19;95244.44;;;20.13;100.00
19457;BME280;9867;48.094;11.478;2023-06-22T03:16:47;95248.97;;;20.27;100.00
19457;BME280;9867;48.094;11.478;2023-06-22T03:19:18;95237.50;;;20.33;100.00
19457;BME280;9867;48.094;11.478;2023-06-22T03:21:47;95234.16;;;20.38;100.00
19457;BME280;9867;48.094;11.478;2023-06-22T03:24:15;95230.72;;;20.32;100.00
19457;BME280;9867;48.094;11.478;2023-06-22T03:26:43;95222.41;;;20.35;100.00
19457;BME280;9867;48.094;11.478;2023-06-22T03:29:13;95224.72;;;20.32;100.00
19457;BME280;9867;48.094;11.478;2023-06-22T03:31:44;95233.06;;;20.34;100.00
19457;BME280;9867;48.094;11.478;2023-06-22T03:34:12;95230.03;;;20.42;100.00
19457;BME280;9867;48.094;11.478;2023-06-22T03:36:40;95229.66;;;20.23;100.00
19457;BME280;9867;48.094;11.478;2023-06-22T03:39:09;95236.63;;;20.13;100.00
19457;BME280;9867;48.094;11.478;2023-06-22T03:41:37;95239.88;;;19.83;100.00
19457;BME280;9867;48.094;11.478;2023-06-22T03:44:05;95235.91;;;19.75;100.00
19457;BME280;9867;48.094;11.478;2023-06-22T03:46:33;95246.03;;;19.39;100.00
19457;BME280;9867;48.094;11.478;2023-06-22T03:49:01;95235.03;;;19.27;100.00
19457;BME280;9867;48.094;11.478;2023-06-22T03:51:32;95234.09;;;19.43;100.00
19457;BME280;9867;48.094;11.478;2023-06-22T03:54:00;95235.78;;;19.55;100.00
19457;BME280;9867;48.094;11.478;2023-06-22T03:56:30;95239.06;;;19.45;100.00
19457;BME280;9867;48.094;11.478;2023-06-22T03:58:58;95242.44;;;19.46;100.00
19457;BME280;9867;48.094;11.478;2023-06-22T04:01:26;95247.03;;;19.65;100.00
19457;BME280;9867;48.094;11.478;2023-06-22T04:03:54;95256.00;;;19.85;100.00
19457;BME280;9867;48.094;11.478;2023-06-22T04:06:22;95258.09;;;19.83;100.00
19457;BME280;9867;48.094;11.478;2023-06-22T04:08:50;95260.09;;;19.70;100.00
19457;BME280;9867;48.094;11.478;2023-06-22T04:11:18;95254.84;;;19.60;100.00
19457;BME280;9867;48.094;11.478;2023-06-22T04:13:47;95247.22;;;19.96;100.00
19457;BME280;9867;48.094;11.478;2023-06-22T04:16:17;95257.28;;;20.24;100.00
19457;BME280;9867;48.094;11.478;2023-06-22T04:18:45;95266.50;;;20.42;100.00
19457;BME280;9867;48.094;11.478;2023-06-22T04:21:13;95237.59;;;20.49;100.00
19457;BME280;9867;48.094;11.478;2023-06-22T04:23:41;95245.97;;;20.51;100.00
19457;BME280;9867;48.094;11.478;2023-06-22T04:26:09;95250.38;;;20.45;100.00
19457;BME280;9867;48.094;11.478;2023-06-22T04:28:37;95254.78;;;20.45;100.00
19457;BME280;9867;48.094;11.478;2023-06-22T04:31:06;95249.25;;;20.36;100.00
19457;BME280;9867;48.094;11.478;2023-06-22T04:33:34;95256.09;;;20.42;100.00
19457;BME280;9867;48.094;11.478;2023-06-22T04:36:03;95245.13;;;20.40;100.00
19457;BME280;9867;48.094;11.478;2023-06-22T04:38:31;95242.72;;;20.28;100.00
19457;BME280;9867;48.094;11.478;2023-06-22T04:41:00;95243.63;;;20.54;100.00
19457;BME280;9867;48.094;11.478;2023-06-22T04:43:29;95244.19;;;20.82;100.00
19457;BME280;9867;48.094;11.478;2023-06-22T04:45:57;95249.19;;;20.93;100.00
19457;BME280;9867;48.094;11.478;2023-06-22T04:48:31;95243.28;;;21.23;100.00
19457;BME280;9867;48.094;11.478;2023-06-22T04:51:00;95239.88;;;21.33;100.00
19457;BME280;9867;48.094;11.478;2023-06-22T04:53:31;95244.31;;;21.32;100.00
19457;BME280;9867;48.094;11.478;2023-06-22T04:55:59;95238.81;;;21.39;100.00
19457;BME280;9867;48.094;11.478;2023-06-22T04:58:27;95241.69;;;21.27;100.00
19457;BME280;9867;48.094;11.478;2023-06-22T05:00:59;95235.97;;;21.25;100.00
19457;BME280;9867;48.094;11.478;2023-06-22T05:03:27;95233.63;;;21.24;100.00
19457;BME280;9867;48.094;11.478;2023-06-22T05:05:56;95232.03;;;21.33;100.00
19457;BME280;9867;48.094;11.478;2023-06-22T05:08:24;95232.28;;;21.26;100.00
19457;BME280;9867;48.094;11.478;2023-06-22T05:10:55;95234.63;;;21.28;100.00
19457;BME280;9867;48.094;11.478;2023-06-22T05:13:32;95232.56;;;21.25;100.00
19457;BME280;9867;48.094;11.478;2023-06-22T05:16:00;95233.84;;;21.17;100.00
19457;BME280;9867;48.094;11.478;2023-06-22T05:18:29;95232.78;;;21.18;100.00
19457;BME280;9867;48.094;11.478;2023-06-22T05:21:00;95222.06;;;21.09;100.00
19457;BME280;9867;48.094;11.478;2023-06-22T05:23:28;95228.66;;;21.22;100.00
19457;BME280;9867;48.094;11.478;2023-06-22T05:25:56;95227.34;;;21.40;100.00
19457;BME280;9867;48.094;11.478;2023-06-22T05:28:25;95224.72;;;21.55;100.00
19457;BME280;9867;48.094;11.478;2023-06-22T05:30:53;95229.41;;;21.53;100.00
19457;BME280;9867;48.094;11.478;2023-06-22T05:33:21;95222.38;;;21.43;100.00
19457;BME280;9867;48.094;11.478;2023-06-22T05:35:49;95223.94;;;21.60;100.00
19457;BME280;9867;48.094;11.478;2023-06-22T05:38:18;95220.81;;;21.42;100.00
19457;BME280;9867;48.094;11.478;2023-06-22T05:40:46;95228.63;;;21.63;100.00
19457;BME280;9867;48.094;11.478;2023-06-22T05:43:14;95225.19;;;21.83;100.00
19457;BME280;9867;48.094;11.478;2023-06-22T05:45:41;95228.28;;;22.00;100.00
19457;BME280;9867;48.094;11.478;2023-06-22T05:48:09;95222.53;;;22.13;100.00
19457;BME280;9867;48.094;11.478;2023-06-22T05:50:37;95212.81;;;22.24;100.00
19457;BME280;9867;48.094;11.478;2023-06-22T05:53:06;95216.53;;;22.18;100.00
19457;BME280;9867;48.094;11.478;2023-06-22T05:55:36;95231.88;;;22.29;100.00
19457;BME280;9867;48.094;11.478;2023-06-22T05:58:04;95235.50;;;22.43;100.00
19457;BME280;9867;48.094;11.478;2023-06-22T06:00:32;95230.81;;;22.35;100.00
19457;BME280;9867;48.094;11.478;2023-06-22T06:03:00;95221.06;;;22.51;100.00
19457;BME280;9867;48.094;11.478;2023-06-22T06:05:30;95234.66;;;22.53;100.00
19457;BME280;9867;48.094;11.478;2023-06-22T06:07:59;95227.81;;;22.67;100.00
19457;BME280;9867;48.094;11.478;2023-06-22T06:10:27;95221.09;;;22.46;100.00
19457;BME280;9867;48.094;11.478;2023-06-22T06:12:58;95223.91;;;22.60;100.00
19457;BME280;9867;48.094;11.478;2023-06-22T06:15:28;95224.09;;;22.84;100.00
19457;BME280;9867;48.094;11.478;2023-06-22T06:17:59;95221.88;;;23.01;100.00
19457;BME280;9867;48.094;11.478;2023-06-22T06:20:28;95221.34;;;22.99;100.00
19457;BME280;9867;48.094;11.478;2023-06-22T06:22:57;95210.13;;;22.93;100.00
19457;BME280;9867;48.094;11.478;2023-06-22T06:25:25;95214.81;;;23.01;100.00
19457;BME280;9867;48.094;11.478;2023-06-22T06:27:53;95213.91;;;23.16;100.00
19457;BME280;9867;48.094;11.478;2023-06-22T06:30:23;95213.19;;;23.39;100.00
19457;BME280;9867;48.094;11.478;2023-06-22T06:32:51;95209.31;;;23.37;100.00
19457;BME280;9867;48.094;11.478;2023-06-22T06:35:19;95204.47;;;23.54;100.00
19457;BME280;9867;48.094;11.478;2023-06-22T06:37:49;95213.63;;;23.52;100.00
19457;BME280;9867;48.094;11.478;2023-06-22T06:40:18;95218.75;;;23.33;100.00
19457;BME280;9867;48.094;11.478;2023-06-22T06:42:47;95210.88;;;23.38;100.00
19457;BME280;9867;48.094;11.478;2023-06-22T06:45:19;95209.09;;;23.28;100.00
19457;BME280;9867;48.094;11.478;2023-06-22T06:47:51;95195.03;;;23.53;100.00
19457;BME280;9867;48.094;11.478;2023-06-22T06:50:19;95195.53;;;23.84;100.00
19457;BME280;9867;48.094;11.478;2023-06-22T06:52:48;95202.69;;;24.02;100.00
19457;BME280;9867;48.094;11.478;2023-06-22T06:55:17;95199.72;;;24.09;100.00
19457;BME280;9867;48.094;11.478;2023-06-22T06:57:46;95196.00;;;24.10;100.00
19457;BME280;9867;48.094;11.478;2023-06-22T07:00:16;95202.41;;;24.28;100.00
19457;BME280;9867;48.094;11.478;2023-06-22T07:02:44;95207.09;;;24.07;100.00
19457;BME280;9867;48.094;11.478;2023-06-22T07:05:16;95205.34;;;24.21;100.00
19457;BME280;9867;48.094;11.478;2023-06-22T07:07:44;95218.56;;;24.35;100.00
19457;BME280;9867;48.094;11.478;2023-06-22T07:10:12;95210.38;;;24.60;100.00
19457;BME280;9867;48.094;11.478;2023-06-22T07:12:42;95209.34;;;24.80;100.00
19457;BME280;9867;48.094;11.478;2023-06-22T07:15:10;95210.16;;;24.99;100.00
19457;BME280;9867;48.094;11.478;2023-06-22T07:17:39;95203.03;;;25.19;100.00
19457;BME280;9867;48.094;11.478;2023-06-22T07:20:09;95206.66;;;25.23;100.00
19457;BME280;9867;48.094;11.478;2023-06-22T07:22:53;95199.03;;;25.21;100.00
19457;BME280;9867;48.094;11.478;2023-06-22T07:25:21;95192.56;;;25.32;100.00
19457;BME280;9867;48.094;11.478;2023-06-22T07:27:57;95200.00;;;25.58;100.00
19457;BME280;9867;48.094;11.478;2023-06-22T07:30:25;95198.91;;;25.77;100.00
19457;BME280;9867;48.094;11.478;2023-06-22T07:32:54;95198.03;;;25.68;100.00
19457;BME280;9867;48.094;11.478;2023-06-22T07:35:22;95187.31;;;25.78;100.00
19457;BME280;9867;48.094;11.478;2023-06-22T07:37:50;95187.91;;;25.75;100.00
19457;BME280;9867;48.094;11.478;2023-06-22T07:40:19;95189.38;;;25.81;100.00
19457;BME280;9867;48.094;11.478;2023-06-22T07:42:47;95187.44;;;25.87;100.00
19457;BME280;9867;48.094;11.478;2023-06-22T07:45:18;95181.41;;;26.14;100.00
19457;BME280;9867;48.094;11.478;2023-06-22T07:47:46;95181.66;;;26.26;100.00
19457;BME280;9867;48.094;11.478;2023-06-22T07:50:14;95171.47;;;26.38;100.00
19457;BME280;9867;48.094;11.478;2023-06-22T07:52:42;95167.19;;;26.42;100.00
19457;BME280;9867;48.094;11.478;2023-06-22T07:55:09;95175.13;;;26.65;100.00
19457;BME280;9867;48.094;11.478;2023-06-22T07:57:39;95180.88;;;26.67;100.00
19457;BME280;9867;48.094;11.478;2023-06-22T08:00:09;95172.34;;;26.70;100.00
19457;BME280;9867;48.094;11.478;2023-06-22T08:02:44;95173.22;;;26.79;100.00
19457;BME280;9867;48.094;11.478;2023-06-22T08:05:13;95182.38;;;26.81;100.00
19457;BME280;9867;48.094;11.478;2023-06-22T08:07:48;95181.97;;;26.88;100.00
19457;BME280;9867;48.094;11.478;2023-06-22T08:10:16;95173.91;;;27.07;100.00
19457;BME280;9867;48.094;11.478;2023-06-22T08:12:46;95182.00;;;27.10;100.00
19457;BME280;9867;48.094;11.478;2023-06-22T08:15:14;95182.81;;;27.42;100.00
19457;BME280;9867;48.094;11.478;2023-06-22T08:17:42;95167.22;;;27.54;100.00
19457;BME280;9867;48.094;11.478;2023-06-22T08:20:11;95178.59;;;27.94;100.00
19457;BME280;9867;48.094;11.478;2023-06-22T08:22:39;95171.38;;;28.17;100.00
19457;BME280;9867;48.094;11.478;2023-06-22T08:25:08;95169.72;;;28.30;100.00
19457;BME280;9867;48.094;11.478;2023-06-22T08:27:37;95171.84;;;28.19;100.00
19457;BME280;9867;48.094;11.478;2023-06-22T08:30:09;95169.88;;;28.25;100.00
19457;BME280;9867;48.094;11.478;2023-06-22T08:32:37;95165.63;;;28.15;100.00
19457;BME280;9867;48.094;11.478;2023-06-22T08:35:06;95168.47;;;27.88;100.00
19457;BME280;9867;48.094;11.478;2023-06-22T08:37:34;95170.88;;;28.06;100.00
19457;BME280;9867;48.094;11.478;2023-06-22T08:40:04;95163.22;;;28.44;100.00
19457;BME280;9867;48.094;11.478;2023-06-22T08:42:34;95166.34;;;28.64;100.00
19457;BME280;9867;48.094;11.478;2023-06-22T08:45:07;95167.31;;;28.85;100.00
19457;BME280;9867;48.094;11.478;2023-06-22T08:47:35;95167.91;;;28.47;100.00
19457;BME280;9867;48.094;11.478;2023-06-22T08:50:04;95162.78;;;28.51;100.00
19457;BME280;9867;48.094;11.478;2023-06-22T08:52:33;95163.19;;;28.36;100.00
19457;BME280;9867;48.094;11.478;2023-06-22T08:55:01;95160.31;;;28.55;100.00
19457;BME280;9867;48.094;11.478;2023-06-22T08:57:29;95157.19;;;29.13;94.94
19457;BME280;9867;48.094;11.478;2023-06-22T08:59:59;95167.28;;;29.28;88.83
19457;BME280;9867;48.094;11.478;2023-06-22T09:02:52;95160.78;;;29.26;91.25
19457;BME280;9867;48.094;11.478;2023-06-22T09:05:26;95160.44;;;29.44;85.65
19457;BME280;9867;48.094;11.478;2023-06-22T09:07:56;95157.94;;;29.39;82.80
19457;BME280;9867;48.094;11.478;2023-06-22T09:10:25;95156.31;;;29.64;80.50
19457;BME280;9867;48.094;11.478;2023-06-22T09:12:53;95162.84;;;29.67;78.36
19457;BME280;9867;48.094;11.478;2023-06-22T09:15:21;95158.81;;;29.69;76.97
19457;BME280;9867;48.094;11.478;2023-06-22T09:17:49;95157.19;;;29.77;76.78
19457;BME280;9867;48.094;11.478;2023-06-22T09:20:22;95157.28;;;29.98;77.41
19457;BME280;9867;48.094;11.478;2023-06-22T09:22:50;95152.00;;;30.27;74.32
19457;BME280;9867;48.094;11.478;2023-06-22T09:25:18;95156.91;;;30.46;70.41
19457;BME280;9867;48.094;11.478;2023-06-22T09:27:47;95149.06;;;30.49;71.43
19457;BME280;9867;48.094;11.478;2023-06-22T09:30:15;95149.34;;;30.77;69.83
19457;BME280;9867;48.094;11.478;2023-06-22T09:32:43;95148.06;;;30.83;70.45
19457;BME280;9867;48.094;11.478;2023-06-22T09:35:11;95156.34;;;30.32;71.06
19457;BME280;9867;48.094;11.478;2023-06-22T09:37:41;95144.94;;;29.72;79.27
19457;BME280;9867;48.094;11.478;2023-06-22T09:40:10;95141.41;;;29.98;79.23
19457;BME280;9867;48.094;11.478;2023-06-22T09:42:41;95148.84;;;30.34;74.42
19457;BME280;9867;48.094;11.478;2023-06-22T09:45:10;95138.88;;;30.81;71.44
19457;BME280;9867;48.094;11.478;2023-06-22T09:47:38;95135.53;;;31.26;66.54
19457;BME280;9867;48.094;11.478;2023-06-22T09:50:06;95133.19;;;31.12;68.58
19457;BME280;9867;48.094;11.478;2023-06-22T09:52:35;95135.19;;;31.15;70.43
19457;BME280;9867;48.094;11.478;2023-06-22T09:55:08;95120.22;;;31.56;68.50
19457;BME280;9867;48.094;11.478;2023-06-22T09:57:36;95122.22;;;31.59;63.67
19457;BME280;9867;48.094;11.478;2023-06-22T10:00:05;95116.06;;;31.67;63.84
19457;BME280;9867;48.094;11.478;2023-06-22T10:02:35;95115.50;;;31.98;61.17
19457;BME280;9867;48.094;11.478;2023-06-22T10:05:04;95116.97;;;32.32;57.12
19457;BME280;9867;48.094;11.478;2023-06-22T10:07:32;95122.00;;;32.37;55.40
19457;BME280;9867;48.094;11.478;2023-06-22T10:10:00;95117.50;;;32.65;55.22
19457;BME280;9867;48.094;11.478;2023-06-22T10:12:30;95109.09;;;32.35;54.00
19457;BME280;9867;48.094;11.478;2023-06-22T10:14:58;95120.41;;;32.60;54.08
19457;BME280;9867;48.094;11.478;2023-06-22T10:17:26;95116.34;;;32.91;53.52
19457;BME280;9867;48.094;11.478;2023-06-22T10:19:54;95111.03;;;32.91;54.17
19457;BME280;9867;48.094;11.478;2023-06-22T10:22:22;95116.22;;;33.15;53.39
19457;BME280;9867;48.094;11.478;2023-06-22T10:24:50;95109.22;;;33.22;52.14
19457;BME280;9867;48.094;11.478;2023-06-22T10:27:18;95114.09;;;33.48;51.48
19457;BME280;9867;48.094;11.478;2023-06-22T10:29:47;95101.88;;;33.47;48.96
19457;BME280;9867;48.094;11.478;2023-06-22T10:32:15;95114.50;;;33.50;50.18
19457;BME280;9867;48.094;11.478;2023-06-22T10:34:43;95105.06;;;33.53;49.18
19457;BME280;9867;48.094;11.478;2023-06-22T10:37:11;95101.13;;;33.47;48.00
19457;BME280;9867;48.094;11.478;2023-06-22T10:39:38;95096.75;;;33.11;53.53
19457;BME280;9867;48.094;11.478;2023-06-22T10:42:07;95094.41;;;33.69;50.89
19457;BME280;9867;48.094;11.478;2023-06-22T10:44:34;95090.63;;;33.85;49.93
19457;BME280;9867;48.094;11.478;2023-06-22T10:47:04;95079.97;;;34.01;48.42
19457;BME280;9867;48.094;11.478;2023-06-22T10:49:32;95088.97;;;34.12;48.25
19457;BME280;9867;48.094;11.478;2023-06-22T10:52:00;95085.72;;;34.38;49.86
19457;BME280;9867;48.094;11.478;2023-06-22T10:54:28;95080.56;;;34.65;48.61
19457;BME280;9867;48.094;11.478;2023-06-22T10:56:56;95079.72;;;34.41;48.10
19457;BME280;9867;48.094;11.478;2023-06-22T10:59:24;95082.03;;;34.43;45.04
19457;BME280;9867;48.094;11.478;2023-06-22T11:01:52;95080.81;;;34.05;45.40
19457;BME280;9867;48.094;11.478;2023-06-22T11:04:22;95071.38;;;34.27;45.68
19457;BME280;9867;48.094;11.478;2023-06-22T11:06:50;95078.53;;;33.88;47.32
19457;BME280;9867;48.094;11.478;2023-06-22T11:09:18;95072.13;;;34.08;48.35
19457;BME280;9867;48.094;11.478;2023-06-22T11:11:55;95081.44;;;33.83;49.50
19457;BME280;9867;48.094;11.478;2023-06-22T11:14:26;95073.63;;;33.90;50.15
19457;BME280;9867;48.094;11.478;2023-06-22T11:16:53;95074.94;;;34.15;49.74
19457;BME280;9867;48.094;11.478;2023-06-22T11:19:24;95070.03;;;33.98;50.37
19457;BME280;9867;48.094;11.478;2023-06-22T11:21:51;95072.44;;;34.22;50.64
19457;BME280;9867;48.094;11.478;2023-06-22T11:24:19;95072.00;;;34.01;49.66
19457;BME280;9867;48.094;11.478;2023-06-22T11:26:47;95064.50;;;34.26;48.56
19457;BME280;9867;48.094;11.478;2023-06-22T11:29:15;95067.78;;;34.35;47.93
19457;BME280;9867;48.094;11.478;2023-06-22T11:32:02;95055.88;;;34.68;46.75
19457;BME280;9867;48.094;11.478;2023-06-22T11:34:31;95054.03;;;34.91;46.27
19457;BME280;9867;48.094;11.478;2023-06-22T11:36:59;95052.88;;;35.11;44.26
19457;BME280;9867;48.094;11.478;2023-06-22T11:39:27;95048.91;;;34.63;45.49
19457;BME280;9867;48.094;11.478;2023-06-22T11:42:08;95046.19;;;34.79;44.66
19457;BME280;9867;48.094;11.478;2023-06-22T11:44:37;95046.97;;;34.06;45.82
19457;BME280;9867;48.094;11.478;2023-06-22T11:47:05;95035.09;;;34.58;46.09
19457;BME280;9867;48.094;11.478;2023-06-22T11:49:35;95042.16;;;35.31;46.23
19457;BME280;9867;48.094;11.478;2023-06-22T11:52:04;95039.31;;;35.69;43.38
19457;BME280;9867;48.094;11.478;2023-06-22T11:54:32;95035.72;;;35.58;44.05
19457;BME280;9867;48.094;11.478;2023-06-22T11:57:00;95033.97;;;35.43;43.67
19457;BME280;9867;48.094;11.478;2023-06-22T11:59:28;95030.75;;;34.69;43.76
19457;BME280;9867;48.094;11.478;2023-06-22T12:01:57;95023.28;;;35.20;43.69
19457;BME280;9867;48.094;11.478;2023-06-22T12:04:25;95027.47;;;35.40;43.22
19457;BME280;9867;48.094;11.478;2023-06-22T12:06:55;95026.72;;;35.66;43.44
19457;BME280;9867;48.094;11.478;2023-06-22T12:09:23;95019.69;;;35.81;43.72
19457;BME280;9867;48.094;11.478;2023-06-22T12:11:51;95013.94;;;36.39;42.80
19457;BME280;9867;48.094;11.478;2023-06-22T12:14:18;95021.66;;;36.44;41.18
19457;BME280;9867;48.094;11.478;2023-06-22T12:16:46;95014.09;;;36.83;41.52
19457;BME280;9867;48.094;11.478;2023-06-22T12:19:15;95013.00;;;37.28;39.32
19457;BME280;9867;48.094;11.478;2023-06-22T12:21:42;95000.28;;;36.44;41.77
19457;BME280;9867;48.094;11.478;2023-06-22T12:24:14;94996.25;;;35.97;43.13
19457;BME280;9867;48.094;11.478;2023-06-22T12:26:42;94998.09;;;36.53;42.85
19457;BME280;9867;48.094;11.478;2023-06-22T12:29:10;94986.19;;;36.80;42.62
19457;BME280;9867;48.094;11.478;2023-06-22T12:31:38;94992.34;;;36.84;42.16
19457;BME280;9867;48.094;11.478;2023-06-22T12:34:06;94986.34;;;36.28;42.94
19457;BME280;9867;48.094;11.478;2023-06-22T12:36:34;94988.69;;;36.33;43.45
19457;BME280;9867;48.094;11.478;2023-06-22T12:39:02;94981.59;;;36.17;44.04
19457;BME280;9867;48.094;11.478;2023-06-22T12:41:31;94974.31;;;36.14;43.50
19457;BME280;9867;48.094;11.478;2023-06-22T12:43:59;94979.94;;;36.06;43.86
19457;BME280;9867;48.094;11.478;2023-06-22T12:46:27;94975.19;;;36.22;43.00
19457;BME280;9867;48.094;11.478;2023-06-22T12:48:56;94974.16;;;36.30;42.73
19457;BME280;9867;48.094;11.478;2023-06-22T12:51:24;94976.97;;;36.14;43.46
19457;BME280;9867;48.094;11.478;2023-06-22T12:53:52;94974.06;;;35.93;44.33
19457;BME280;9867;48.094;11.478;2023-06-22T12:56:20;94969.75;;;36.15;44.63
19457;BME280;9867;48.094;11.478;2023-06-22T12:58:49;94975.72;;;36.72;43.81
19457;BME280;9867;48.094;11.478;2023-06-22T13:01:17;94981.09;;;37.12;41.82
19457;BME280;9867;48.094;11.478;2023-06-22T13:03:45;94976.78;;;37.01;41.46